Time;durP1;ratioP1;P1;durP2;ratioP2;P2;SDS_P1;SDS_P2;PMS_P1;PMS_P2;Temp;Humidity;BMP_temperature;BMP_pressure;BME280_temperature;BME280_humidity;BME280_pressure;Samples;Min_cycle;Max_cycle;Signal;HPM_P1;HPM_P2
2023/09/30 00:00:12;;;;;;;11.00;8.50;;;;;;;;;;13116243;22;21042;-90
2023/09/30 00:05:15;;;;;;;10.95;8.32;;;;;;;;;;13119725;22;20363;-89
2023/09/30 00:10:19;;;;;;;12.45;7.97;;;;;;;;;;13121120;22;20437;-89
2023/09/30 00:15:21;;;;;;;9.60;7.63;;;;;;;;;;13142458;22;20359;-89
2023/09/30 00:20:24;;;;;;;10.25;7.82;;;;;;;;;;13121206;22;20617;-89
2023/09/30 00:25:27;;;;;;;10.50;8.10;;;;;;;;;;13120835;22;20363;-90
2023/09/30 00:30:30;;;;;;;10.27;7.65;;;;;;;;;;13120253;22;20379;-89
2023/09/30 00:35:33;;;;;;;10.07;7.75;;;;;;;;;;13142103;22;20810;-89
2023/09/30 00:40:37;;;;;;;11.27;7.90;;;;;;;;;;13119487;22;20439;-89
2023/09/30 00:45:39;;;;;;;10.35;8.02;;;;;;;;;;13119710;22;20696;-89
2023/09/30 00:50:42;;;;;;;13.48;8.20;;;;;;;;;;13142248;22;20746;-89
2023/09/30 00:55:46;;;;;;;12.10;7.97;;;;;;;;;;13119732;22;20420;-90
2023/09/30 01:00:48;;;;;;;11.85;8.20;;;;;;;;;;13120100;22;20437;-89
2023/09/30 01:05:51;;;;;;;10.38;8.18;;;;;;;;;;13140596;22;20351;-89
2023/09/30 01:10:55;;;;;;;8.70;7.60;;;;;;;;;;13118110;22;20433;-90
2023/09/30 01:15:57;;;;;;;11.98;8.35;;;;;;;;;;13116967;22;20355;-90
2023/09/30 01:21:03;;;;;;;11.20;8.30;;;;;;;;;;13118074;22;20390;-89
2023/09/30 01:26:09;;;;;;;12.43;8.30;;;;;;;;;;13118604;22;20388;-89
2023/09/30 01:31:12;;;;;;;10.25;8.23;;;;;;;;;;13117958;22;20494;-89
2023/09/30 01:36:14;;;;;;;14.07;8.73;;;;;;;;;;13116670;22;20363;-90
2023/09/30 01:41:18;;;;;;;10.67;8.53;;;;;;;;;;13118571;22;20367;-89
2023/09/30 01:46:20;;;;;;;11.95;7.95;;;;;;;;;;13119340;22;20355;-89
2023/09/30 01:51:23;;;;;;;10.15;8.80;;;;;;;;;;13117317;22;20379;-89
2023/09/30 01:56:27;;;;;;;11.07;8.70;;;;;;;;;;13118376;22;20360;-90
2023/09/30 02:01:29;;;;;;;11.10;8.85;;;;;;;;;;13140043;22;20363;-89
2023/09/30 02:06:31;;;;;;;13.60;9.90;;;;;;;;;;13117977;22;20375;-89
2023/09/30 02:11:35;;;;;;;11.10;8.98;;;;;;;;;;13120853;22;20382;-90
2023/09/30 02:16:39;;;;;;;11.35;8.80;;;;;;;;;;13119111;22;20655;-89
2023/09/30 02:21:41;;;;;;;10.40;8.43;;;;;;;;;;13117258;22;20393;-89
2023/09/30 02:26:45;;;;;;;12.65;9.02;;;;;;;;;;13117630;22;20364;-90
2023/09/30 02:31:47;;;;;;;12.32;9.10;;;;;;;;;;13117224;22;20375;-89
2023/09/30 02:36:49;;;;;;;10.57;8.93;;;;;;;;;;13118113;22;20798;-89
2023/09/30 02:41:53;;;;;;;14.95;9.32;;;;;;;;;;13117850;22;20390;-90
2023/09/30 02:46:55;;;;;;;12.07;8.57;;;;;;;;;;13117498;22;20367;-90
2023/09/30 02:51:58;;;;;;;13.77;9.10;;;;;;;;;;13117645;22;20371;-88
2023/09/30 02:57:03;;;;;;;13.98;9.05;;;;;;;;;;13140179;22;20355;-89
2023/09/30 03:02:06;;;;;;;12.57;9.32;;;;;;;;;;13117733;22;20351;-90
2023/09/30 03:07:09;;;;;;;11.40;9.32;;;;;;;;;;13116367;22;20429;-90
2023/09/30 03:12:13;;;;;;;12.70;9.50;;;;;;;;;;13138507;22;20379;-89
2023/09/30 03:17:16;;;;;;;13.97;9.60;;;;;;;;;;13117563;22;20401;-90
2023/09/30 03:22:19;;;;;;;13.38;9.68;;;;;;;;;;13117657;22;20364;-89
2023/09/30 03:27:22;;;;;;;12.13;9.40;;;;;;;;;;13116972;22;20911;-89
2023/09/30 03:32:25;;;;;;;12.82;9.23;;;;;;;;;;13117458;22;20383;-89
2023/09/30 03:37:28;;;;;;;12.55;9.18;;;;;;;;;;13116002;22;20819;-89
2023/09/30 03:42:32;;;;;;;13.10;9.47;;;;;;;;;;13117246;22;20359;-90
2023/09/30 03:47:35;;;;;;;11.13;8.90;;;;;;;;;;13117091;22;20363;-89
2023/09/30 03:52:38;;;;;;;13.18;9.07;;;;;;;;;;13116539;22;20919;-89
2023/09/30 03:57:42;;;;;;;11.43;9.35;;;;;;;;;;13118090;22;20367;-89
2023/09/30 04:02:48;;;;;;;12.60;9.17;;;;;;;;;;13117678;22;20362;-90
2023/09/30 04:07:50;;;;;;;10.85;8.82;;;;;;;;;;13138244;22;20347;-88
2023/09/30 04:12:54;;;;;;;16.20;9.27;;;;;;;;;;13116776;22;20912;-90
2023/09/30 04:17:56;;;;;;;14.80;10.20;;;;;;;;;;13116090;22;20692;-89
2023/09/30 04:22:59;;;;;;;16.73;11.07;;;;;;;;;;13116097;22;20413;-89
2023/09/30 04:28:03;;;;;;;18.45;12.48;;;;;;;;;;13137197;22;20738;-89
2023/09/30 04:33:07;;;;;;;14.80;10.75;;;;;;;;;;13115690;22;20379;-89
2023/09/30 04:38:10;;;;;;;14.03;9.87;;;;;;;;;;13114968;22;20367;-89
2023/09/30 04:43:14;;;;;;;13.35;10.38;;;;;;;;;;13116093;22;20363;-89
2023/09/30 04:48:16;;;;;;;17.10;11.10;;;;;;;;;;13136732;22;20827;-89
2023/09/30 04:53:19;;;;;;;11.00;8.82;;;;;;;;;;13117552;22;20378;-89
2023/09/30 04:58:23;;;;;;;12.43;9.23;;;;;;;;;;13119854;22;20360;-89
2023/09/30 05:03:26;;;;;;;15.13;9.77;;;;;;;;;;13139847;22;20381;-89
2023/09/30 05:08:29;;;;;;;14.52;10.40;;;;;;;;;;13119349;22;20363;-89
2023/09/30 05:13:33;;;;;;;17.52;11.48;;;;;;;;;;13119087;22;20435;-87
2023/09/30 05:18:36;;;;;;;14.30;10.18;;;;;;;;;;13117728;22;20367;-88
2023/09/30 05:23:39;;;;;;;18.87;10.97;;;;;;;;;;13117238;22;20908;-87
2023/09/30 05:28:43;;;;;;;15.00;10.35;;;;;;;;;;13116492;22;20424;-89
2023/09/30 05:33:46;;;;;;;15.63;10.75;;;;;;;;;;13117742;22;20375;-89
2023/09/30 05:38:49;;;;;;;15.98;10.43;;;;;;;;;;13118558;22;20401;-88
2023/09/30 05:43:53;;;;;;;15.13;9.93;;;;;;;;;;13119046;22;20351;-91
2023/09/30 05:48:55;;;;;;;17.00;12.23;;;;;;;;;;13133801;22;20359;-90
2023/09/30 05:53:58;;;;;;;17.85;10.27;;;;;;;;;;13130658;22;20410;-91
2023/09/30 05:59:01;;;;;;;11.85;8.80;;;;;;;;;;13126840;22;20683;-90
2023/09/30 06:04:04;;;;;;;14.47;9.97;;;;;;;;;;13125163;22;20516;-91
2023/09/30 06:09:07;;;;;;;15.18;9.93;;;;;;;;;;13126890;22;20367;-92
2023/09/30 06:14:11;;;;;;;12.25;9.48;;;;;;;;;;13126151;22;20375;-92
2023/09/30 06:19:13;;;;;;;12.05;8.98;;;;;;;;;;13122560;22;20413;-93
2023/09/30 06:24:16;;;;;;;16.98;9.07;;;;;;;;;;13117916;22;20416;-93
2023/09/30 06:29:19;;;;;;;12.55;8.88;;;;;;;;;;13114118;22;20359;-93
2023/09/30 06:34:22;;;;;;;12.23;9.13;;;;;;;;;;13114840;22;20379;-92
2023/09/30 06:39:24;;;;;;;12.93;9.10;;;;;;;;;;13130336;22;20355;-92
2023/09/30 06:44:28;;;;;;;11.27;8.47;;;;;;;;;;13113138;22;20691;-92
2023/09/30 06:49:30;;;;;;;11.98;7.90;;;;;;;;;;13113372;22;20417;-93
2023/09/30 06:54:33;;;;;;;9.95;8.18;;;;;;;;;;13110055;22;20383;-93
2023/09/30 06:59:37;;;;;;;11.35;8.45;;;;;;;;;;13110733;22;20899;-92
2023/09/30 07:04:39;;;;;;;10.70;8.00;;;;;;;;;;13112825;22;20396;-93
2023/09/30 07:09:43;;;;;;;12.48;8.05;;;;;;;;;;13111712;22;20359;-92
2023/09/30 07:14:46;;;;;;;9.93;7.07;;;;;;;;;;13107393;22;20375;-92
2023/09/30 07:19:50;;;;;;;8.95;7.15;;;;;;;;;;13104319;22;20481;-89
2023/09/30 07:24:52;;;;;;;9.88;7.47;;;;;;;;;;13102138;22;20447;-88
2023/09/30 07:29:56;;;;;;;11.20;7.60;;;;;;;;;;13104409;22;20414;-89
2023/09/30 07:34:58;;;;;;;8.40;7.10;;;;;;;;;;13106568;22;20406;-90
2023/09/30 07:40:01;;;;;;;9.10;6.97;;;;;;;;;;13107949;22;20487;-81
2023/09/30 07:45:06;;;;;;;10.15;6.85;;;;;;;;;;13107699;22;20368;-89
2023/09/30 07:50:12;;;;;;;8.60;6.85;;;;;;;;;;13108616;22;20908;-89
2023/09/30 07:55:14;;;;;;;8.63;6.60;;;;;;;;;;13111464;22;20753;-90
2023/09/30 08:00:21;;;;;;;10.00;6.70;;;;;;;;;;13112094;22;20363;-89
2023/09/30 08:05:23;;;;;;;7.88;6.15;;;;;;;;;;13133532;22;20359;-90
2023/09/30 08:10:25;;;;;;;8.38;6.10;;;;;;;;;;13112797;22;20393;-90
2023/09/30 08:15:30;;;;;;;9.07;5.93;;;;;;;;;;13112830;22;20413;-90
2023/09/30 08:20:32;;;;;;;13.13;5.93;;;;;;;;;;13110364;22;20367;-90
2023/09/30 08:25:34;;;;;;;10.73;5.63;;;;;;;;;;13119180;22;20351;-88
2023/09/30 08:30:38;;;;;;;8.32;5.45;;;;;;;;;;13120074;22;20363;-90
2023/09/30 08:35:41;;;;;;;7.68;5.50;;;;;;;;;;13114470;22;20849;-90
2023/09/30 08:40:46;;;;;;;8.00;5.10;;;;;;;;;;13111545;22;20706;-84
2023/09/30 08:45:55;;;;;;;6.68;5.28;;;;;;;;;;13107315;22;20392;-83
2023/09/30 08:50:59;;;;;;;8.27;5.43;;;;;;;;;;13095081;22;20384;-84
2023/09/30 08:56:07;;;;;;;6.90;4.70;;;;;;;;;;13099210;22;20404;-84
2023/09/30 09:01:12;;;;;;;7.20;4.72;;;;;;;;;;13100149;22;20448;-89
2023/09/30 09:06:15;;;;;;;10.30;5.30;;;;;;;;;;13107358;22;20375;-87
2023/09/30 09:11:17;;;;;;;7.03;4.80;;;;;;;;;;13106157;22;20378;-90
2023/09/30 09:16:21;;;;;;;7.90;5.75;;;;;;;;;;13112910;22;20456;-88
2023/09/30 09:21:26;;;;;;;7.85;5.30;;;;;;;;;;13111706;22;20390;-88
2023/09/30 09:26:29;;;;;;;9.23;5.47;;;;;;;;;;13133179;22;20803;-89
2023/09/30 09:31:35;;;;;;;8.20;5.53;;;;;;;;;;13111165;22;20379;-88
2023/09/30 09:36:41;;;;;;;6.63;5.30;;;;;;;;;;13102588;22;20375;-87
2023/09/30 09:41:54;;;;;;;7.80;5.53;;;;;;;;;;13103376;22;20359;-88
2023/09/30 09:46:59;;;;;;;6.93;5.17;;;;;;;;;;13103287;22;20389;-88
2023/09/30 09:52:03;;;;;;;6.30;5.15;;;;;;;;;;13103783;22;20375;-89
2023/09/30 09:57:10;;;;;;;6.37;5.30;;;;;;;;;;13101255;22;20371;-88
2023/09/30 10:02:15;;;;;;;5.95;5.35;;;;;;;;;;13101411;22;20375;-88
2023/09/30 10:07:22;;;;;;;9.02;5.28;;;;;;;;;;13101195;22;20393;-89
2023/09/30 10:12:25;;;;;;;6.20;4.45;;;;;;;;;;13113777;22;20371;-86
2023/09/30 10:17:59;;;;;;;5.83;5.10;;;;;;;;;;13115112;22;20371;-88
2023/09/30 10:23:32;;;;;;;8.40;5.38;;;;;;;;;;13100399;22;20379;-88
2023/09/30 10:28:37;;;;;;;8.18;5.40;;;;;;;;;;13103283;22;20398;-87
2023/09/30 10:34:12;;;;;;;9.90;5.80;;;;;;;;;;13103335;22;20456;-86
2023/09/30 10:39:18;;;;;;;7.05;5.57;;;;;;;;;;13101327;22;20826;-87
2023/09/30 10:44:36;;;;;;;8.02;5.45;;;;;;;;;;13101488;22;20796;-86
2023/09/30 10:49:38;;;;;;;7.10;5.50;;;;;;;;;;13104694;22;20448;-87
2023/09/30 10:54:43;;;;;;;7.40;5.35;;;;;;;;;;13101503;22;20380;-86
2023/09/30 10:59:45;;;;;;;6.13;5.35;;;;;;;;;;13101313;22;20908;-86
2023/09/30 11:04:47;;;;;;;8.05;5.50;;;;;;;;;;13102567;22;20367;-86
2023/09/30 11:09:51;;;;;;;9.10;5.93;;;;;;;;;;13100823;22;20375;-86
2023/09/30 11:15:01;;;;;;;7.15;5.85;;;;;;;;;;13093653;22;20856;-87
2023/09/30 11:20:06;;;;;;;9.20;5.73;;;;;;;;;;13112697;22;20363;-88
2023/09/30 11:25:17;;;;;;;7.30;5.72;;;;;;;;;;13101052;22;20375;-88
2023/09/30 11:30:22;;;;;;;8.43;5.70;;;;;;;;;;13100766;22;20413;-88
2023/09/30 11:35:24;;;;;;;6.57;5.55;;;;;;;;;;13098909;22;20375;-88
2023/09/30 11:40:28;;;;;;;8.13;6.00;;;;;;;;;;13101740;22;20368;-88
2023/09/30 11:45:30;;;;;;;8.52;5.50;;;;;;;;;;13100812;22;20363;-88
2023/09/30 11:50:47;;;;;;;8.60;6.00;;;;;;;;;;13097299;22;20375;-88
2023/09/30 11:55:50;;;;;;;7.45;6.38;;;;;;;;;;13098129;22;20858;-88
2023/09/30 12:00:57;;;;;;;11.13;6.13;;;;;;;;;;13123386;22;20402;-87
2023/09/30 12:06:00;;;;;;;7.40;5.57;;;;;;;;;;13091829;22;20383;-87
2023/09/30 12:11:04;;;;;;;8.13;5.67;;;;;;;;;;13094871;22;20372;-85
2023/09/30 12:16:06;;;;;;;7.90;5.40;;;;;;;;;;13095388;22;20436;-86
2023/09/30 12:21:10;;;;;;;7.60;5.63;;;;;;;;;;13096842;22;20944;-87
2023/09/30 12:26:14;;;;;;;10.60;6.95;;;;;;;;;;13121758;22;20359;-86
2023/09/30 12:31:18;;;;;;;6.65;5.63;;;;;;;;;;13098604;22;20360;-86
2023/09/30 12:36:20;;;;;;;8.82;6.10;;;;;;;;;;13118157;22;20742;-86
2023/09/30 12:41:24;;;;;;;8.17;5.50;;;;;;;;;;13121343;22;20420;-85
2023/09/30 12:46:27;;;;;;;9.10;6.03;;;;;;;;;;13103157;22;20392;-86
2023/09/30 12:51:29;;;;;;;6.97;5.57;;;;;;;;;;13101484;22;20359;-85
2023/09/30 12:56:33;;;;;;;5.93;5.30;;;;;;;;;;13122577;22;20371;-85
2023/09/30 13:01:36;;;;;;;11.27;6.00;;;;;;;;;;13103392;22;20428;-85
2023/09/30 13:06:38;;;;;;;7.23;5.97;;;;;;;;;;13075264;22;20368;-87
2023/09/30 13:11:42;;;;;;;7.83;5.43;;;;;;;;;;13105007;22;20424;-86
2023/09/30 13:16:46;;;;;;;6.82;5.38;;;;;;;;;;13104466;22;20436;-86
2023/09/30 13:21:48;;;;;;;8.35;5.40;;;;;;;;;;13130596;22;20400;-86
2023/09/30 13:26:52;;;;;;;7.53;5.28;;;;;;;;;;13109139;22;20436;-86
2023/09/30 13:31:54;;;;;;;8.95;5.97;;;;;;;;;;13106823;22;20363;-86
2023/09/30 13:36:57;;;;;;;8.02;5.63;;;;;;;;;;13106581;22;20375;-86
2023/09/30 13:42:02;;;;;;;8.30;5.40;;;;;;;;;;13111263;22;20424;-87
2023/09/30 13:47:04;;;;;;;4.93;4.43;;;;;;;;;;13132809;22;20364;-85
2023/09/30 13:52:06;;;;;;;6.53;4.50;;;;;;;;;;13108751;22;20355;-86
2023/09/30 13:57:10;;;;;;;6.35;4.47;;;;;;;;;;13106389;22;20934;-84
2023/09/30 14:02:13;;;;;;;7.37;5.17;;;;;;;;;;13108497;22;20360;-87
2023/09/30 14:07:18;;;;;;;5.67;4.90;;;;;;;;;;13131055;22;20351;-88
2023/09/30 14:12:21;;;;;;;8.27;5.00;;;;;;;;;;13109821;22;20359;-87
2023/09/30 14:17:25;;;;;;;7.57;4.90;;;;;;;;;;13110367;22;20503;-87
2023/09/30 14:22:28;;;;;;;5.78;5.18;;;;;;;;;;13102958;22;20359;-85
2023/09/30 14:27:31;;;;;;;6.50;5.10;;;;;;;;;;13103450;22;20831;-87
2023/09/30 14:32:33;;;;;;;5.80;5.20;;;;;;;;;;13123694;22;20421;-86
2023/09/30 14:37:36;;;;;;;6.23;5.07;;;;;;;;;;13100938;22;20368;-86
2023/09/30 14:42:41;;;;;;;5.00;4.50;;;;;;;;;;13098950;22;20417;-86
2023/09/30 14:47:44;;;;;;;5.95;4.60;;;;;;;;;;13104635;22;20681;-86
2023/09/30 14:52:46;;;;;;;6.93;4.70;;;;;;;;;;13104389;22;20637;-86
2023/09/30 14:57:50;;;;;;;6.38;4.72;;;;;;;;;;13102350;22;20359;-85
2023/09/30 15:02:54;;;;;;;8.07;5.38;;;;;;;;;;13104360;22;20684;-85
2023/09/30 15:07:56;;;;;;;7.90;5.20;;;;;;;;;;13116707;22;20351;-86
2023/09/30 15:13:00;;;;;;;5.60;5.00;;;;;;;;;;13099099;22;20503;-86
2023/09/30 15:18:03;;;;;;;6.97;5.13;;;;;;;;;;13101286;22;20436;-84
2023/09/30 15:23:05;;;;;;;5.63;4.90;;;;;;;;;;13097146;22;20436;-85
2023/09/30 15:28:09;;;;;;;7.00;5.18;;;;;;;;;;13100410;22;20948;-85
2023/09/30 15:33:12;;;;;;;6.68;4.97;;;;;;;;;;13144588;22;20355;-85
2023/09/30 15:38:14;;;;;;;6.75;5.28;;;;;;;;;;13112110;22;20733;-85
2023/09/30 15:43:18;;;;;;;7.90;5.18;;;;;;;;;;13096436;22;20436;-85
2023/09/30 15:48:21;;;;;;;10.83;5.23;;;;;;;;;;13098247;22;20371;-84
2023/09/30 15:53:23;;;;;;;7.07;5.20;;;;;;;;;;13100029;22;20479;-86
2023/09/30 15:58:28;;;;;;;7.40;5.30;;;;;;;;;;13093134;22;20375;-86
2023/09/30 16:03:31;;;;;;;6.75;4.80;;;;;;;;;;13107815;22;20466;-86
2023/09/30 16:08:33;;;;;;;8.57;4.80;;;;;;;;;;13102397;22;20827;-92
2023/09/30 16:13:37;;;;;;;9.30;5.00;;;;;;;;;;13096006;22;20792;-89
2023/09/30 16:18:40;;;;;;;8.23;5.50;;;;;;;;;;13090091;22;20498;-89
2023/09/30 16:23:43;;;;;;;6.33;5.27;;;;;;;;;;13098039;22;20425;-90
2023/09/30 16:28:46;;;;;;;7.22;5.45;;;;;;;;;;13096288;22;20375;-89
2023/09/30 16:33:49;;;;;;;8.20;4.70;;;;;;;;;;13100832;22;20383;-88
2023/09/30 16:38:51;;;;;;;7.07;5.00;;;;;;;;;;13097085;22;20436;-88
2023/09/30 16:43:55;;;;;;;5.78;5.18;;;;;;;;;;13099659;22;20371;-89
2023/09/30 16:48:58;;;;;;;7.85;5.30;;;;;;;;;;13099580;22;20396;-89
2023/09/30 16:54:01;;;;;;;12.07;5.78;;;;;;;;;;13103523;22;20850;-90
2023/09/30 16:59:05;;;;;;;9.43;5.27;;;;;;;;;;13098131;22;20425;-86
2023/09/30 17:04:08;;;;;;;13.93;6.35;;;;;;;;;;13102592;22;20371;-85
2023/09/30 17:09:11;;;;;;;8.38;5.70;;;;;;;;;;13090142;22;20397;-83
2023/09/30 17:14:17;;;;;;;10.27;5.78;;;;;;;;;;13096257;22;20371;-83
2023/09/30 17:19:23;;;;;;;9.00;5.40;;;;;;;;;;13001839;22;2213527;-83
2023/09/30 17:24:26;;;;;;;8.20;5.80;;;;;;;;;;13102061;22;20904;-84
2023/09/30 17:29:30;;;;;;;9.07;6.10;;;;;;;;;;13103012;22;20367;-82
2023/09/30 17:34:35;;;;;;;11.23;6.27;;;;;;;;;;13101048;22;20452;-82
2023/09/30 17:39:38;;;;;;;15.50;6.30;;;;;;;;;;13101893;22;20424;-83
2023/09/30 17:44:44;;;;;;;11.30;6.80;;;;;;;;;;13124251;22;20355;-83
2023/09/30 17:49:47;;;;;;;9.98;6.47;;;;;;;;;;13100747;22;20371;-83
2023/09/30 17:54:49;;;;;;;11.90;7.03;;;;;;;;;;13124114;22;20440;-83
2023/09/30 17:59:54;;;;;;;12.57;6.65;;;;;;;;;;13102150;22;20905;-83
2023/09/30 18:04:57;;;;;;;12.57;6.90;;;;;;;;;;13095563;22;20359;-83
2023/09/30 18:09:59;;;;;;;11.17;6.93;;;;;;;;;;13099223;22;20393;-83
2023/09/30 18:15:04;;;;;;;11.63;7.22;;;;;;;;;;13100207;22;20413;-82
2023/09/30 18:20:08;;;;;;;11.13;7.90;;;;;;;;;;13097099;22;20359;-83
2023/09/30 18:25:11;;;;;;;9.90;7.67;;;;;;;;;;13099352;22;20355;-82
2023/09/30 18:30:15;;;;;;;13.70;8.20;;;;;;;;;;13101711;22;21273;-82
2023/09/30 18:35:19;;;;;;;12.13;8.67;;;;;;;;;;13100462;22;20713;-80
2023/09/30 18:40:21;;;;;;;11.27;8.30;;;;;;;;;;13101458;22;20363;-82
2023/09/30 18:45:25;;;;;;;13.77;9.35;;;;;;;;;;13101651;22;20417;-83
2023/09/30 18:50:28;;;;;;;18.83;10.30;;;;;;;;;;13101861;22;20363;-83
2023/09/30 18:55:30;;;;;;;15.32;10.73;;;;;;;;;;13102151;22;20480;-81
2023/09/30 19:00:36;;;;;;;16.00;11.90;;;;;;;;;;13073478;22;20890;-82
2023/09/30 19:05:40;;;;;;;17.63;11.68;;;;;;;;;;13101785;22;20367;-82
2023/09/30 19:10:42;;;;;;;20.58;12.60;;;;;;;;;;13100321;22;20363;-82
2023/09/30 19:15:46;;;;;;;15.18;12.15;;;;;;;;;;13103442;22;20750;-82
2023/09/30 19:20:49;;;;;;;18.33;13.27;;;;;;;;;;13103854;22;20367;-82
2023/09/30 19:25:51;;;;;;;17.75;12.63;;;;;;;;;;13105341;22;20413;-82
2023/09/30 19:30:55;;;;;;;18.52;12.73;;;;;;;;;;13103044;22;20420;-83
2023/09/30 19:35:58;;;;;;;18.88;13.10;;;;;;;;;;13103695;22;20387;-83
2023/09/30 19:41:00;;;;;;;19.17;12.17;;;;;;;;;;13103760;22;20389;-83
2023/09/30 19:46:05;;;;;;;17.60;12.77;;;;;;;;;;13126173;22;20412;-83
2023/09/30 19:51:08;;;;;;;14.93;11.73;;;;;;;;;;13104419;22;20416;-83
2023/09/30 19:56:11;;;;;;;17.45;12.40;;;;;;;;;;13104472;22;20563;-83
2023/09/30 20:01:19;;;;;;;17.00;11.73;;;;;;;;;;13103377;22;20448;-83
2023/09/30 20:06:22;;;;;;;16.52;12.52;;;;;;;;;;13106697;22;20389;-83
2023/09/30 20:11:27;;;;;;;17.77;12.23;;;;;;;;;;13124417;22;20363;-83
2023/09/30 20:16:31;;;;;;;16.93;13.10;;;;;;;;;;13105575;22;20379;-84
2023/09/30 20:21:36;;;;;;;15.80;12.02;;;;;;;;;;13105549;22;20362;-82
2023/09/30 20:26:38;;;;;;;19.00;12.93;;;;;;;;;;13108839;22;20356;-85
2023/09/30 20:31:42;;;;;;;17.83;12.60;;;;;;;;;;13109037;22;20367;-84
2023/09/30 20:36:45;;;;;;;17.13;12.57;;;;;;;;;;13108594;22;20375;-84
2023/09/30 20:41:49;;;;;;;17.90;12.27;;;;;;;;;;13110870;22;20393;-83
2023/09/30 20:46:53;;;;;;;16.85;12.75;;;;;;;;;;13109098;22;20770;-83
2023/09/30 20:51:56;;;;;;;16.27;12.27;;;;;;;;;;13107385;22;20363;-83
2023/09/30 20:56:59;;;;;;;16.10;11.88;;;;;;;;;;13109754;22;20444;-83
2023/09/30 21:02:03;;;;;;;17.95;13.07;;;;;;;;;;13108403;22;20417;-84
2023/09/30 21:07:05;;;;;;;16.35;12.18;;;;;;;;;;13107217;22;20842;-84
2023/09/30 21:12:08;;;;;;;19.13;11.95;;;;;;;;;;13107525;22;20823;-83
2023/09/30 21:17:12;;;;;;;16.33;11.90;;;;;;;;;;13130277;22;20936;-83
2023/09/30 21:22:14;;;;;;;17.15;11.85;;;;;;;;;;13108538;22;20429;-84
2023/09/30 21:27:16;;;;;;;15.00;11.77;;;;;;;;;;13107219;22;20364;-84
2023/09/30 21:32:20;;;;;;;25.23;18.02;;;;;;;;;;13129398;22;20389;-84
2023/09/30 21:37:22;;;;;;;14.70;11.83;;;;;;;;;;13105712;22;20372;-84
2023/09/30 21:42:25;;;;;;;14.45;11.45;;;;;;;;;;13129449;22;20363;-83
2023/09/30 21:47:28;;;;;;;13.40;11.70;;;;;;;;;;13105988;22;20417;-84
2023/09/30 21:52:31;;;;;;;14.50;11.50;;;;;;;;;;13104174;22;20379;-84
2023/09/30 21:57:33;;;;;;;15.60;11.73;;;;;;;;;;13105050;22;20461;-84
2023/09/30 22:02:37;;;;;;;16.80;11.40;;;;;;;;;;13099596;22;20363;-84
2023/09/30 22:07:40;;;;;;;13.97;11.37;;;;;;;;;;13105152;22;20400;-84
2023/09/30 22:12:43;;;;;;;15.48;11.60;;;;;;;;;;13105459;22;20468;-84
2023/09/30 22:17:47;;;;;;;15.63;12.25;;;;;;;;;;13101198;22;20440;-84
2023/09/30 22:22:50;;;;;;;15.50;11.80;;;;;;;;;;13107345;22;20359;-85
2023/09/30 22:27:53;;;;;;;15.00;11.37;;;;;;;;;;13106957;22;20436;-84
2023/09/30 22:32:57;;;;;;;15.07;11.75;;;;;;;;;;13106717;22;20367;-84
2023/09/30 22:37:59;;;;;;;16.45;12.07;;;;;;;;;;13103525;22;20379;-82
2023/09/30 22:43:04;;;;;;;13.82;11.50;;;;;;;;;;13102355;22;20997;-80
2023/09/30 22:48:09;;;;;;;14.45;11.52;;;;;;;;;;13101054;22;20393;-82
2023/09/30 22:53:12;;;;;;;12.57;10.55;;;;;;;;;;13099171;22;20784;-82
2023/09/30 22:58:14;;;;;;;13.20;10.30;;;;;;;;;;13125301;22;20857;-82
2023/09/30 23:03:18;;;;;;;14.07;10.32;;;;;;;;;;13105149;22;20355;-82
2023/09/30 23:08:21;;;;;;;13.18;10.52;;;;;;;;;;13103772;22;20359;-81
2023/09/30 23:13:23;;;;;;;13.80;10.25;;;;;;;;;;13104858;22;20458;-82
2023/09/30 23:18:27;;;;;;;13.65;10.00;;;;;;;;;;13105125;22;20437;-81
2023/09/30 23:23:29;;;;;;;12.37;9.47;;;;;;;;;;13104885;22;20401;-82
2023/09/30 23:28:34;;;;;;;12.07;9.77;;;;;;;;;;13105735;22;20861;-82
2023/09/30 23:33:38;;;;;;;13.38;9.85;;;;;;;;;;13105403;22;20363;-81
2023/09/30 23:38:40;;;;;;;12.88;9.38;;;;;;;;;;13106287;22;20417;-83
2023/09/30 23:43:43;;;;;;;12.27;9.27;;;;;;;;;;13127658;22;20363;-83
2023/09/30 23:48:47;;;;;;;12.10;9.18;;;;;;;;;;13105764;22;20367;-82
2023/09/30 23:53:49;;;;;;;13.10;9.50;;;;;;;;;;13126148;22;20348;-83
2023/09/30 23:58:52;;;;;;;10.82;8.98;;;;;;;;;;13105433;22;20375;-82
